createdAt,value
2022-10-13T00:00:27.503Z,22.59
2022-10-13T00:03:13.387Z,21.94
2022-10-13T00:05:59.284Z,21.88
2022-10-13T00:08:45.194Z,22.28
2022-10-13T00:11:31.048Z,22.14
2022-10-13T00:14:16.966Z,23.08
2022-10-13T00:17:02.860Z,22.06
2022-10-13T00:19:48.749Z,21.86
2022-10-13T00:22:34.507Z,21.88
2022-10-13T00:25:20.296Z,22.47
2022-10-13T00:28:06.182Z,22.65
2022-10-13T00:30:52.153Z,23.79
2022-10-13T00:33:37.967Z,24.46
2022-10-13T00:36:23.932Z,23.00
2022-10-13T00:39:09.730Z,23.20
2022-10-13T00:41:55.704Z,21.50
2022-10-13T00:44:41.631Z,23.16
2022-10-13T00:47:27.489Z,23.13
2022-10-13T00:50:13.468Z,23.15
2022-10-13T00:52:59.366Z,23.97
2022-10-13T00:55:45.164Z,23.30
2022-10-13T00:58:31.216Z,22.91
2022-10-13T01:01:17.022Z,22.47
2022-10-13T01:04:02.960Z,22.75
2022-10-13T01:06:48.967Z,23.12
2022-10-13T01:09:34.945Z,23.44
2022-10-13T01:12:21.301Z,23.56
2022-10-13T01:15:07.734Z,23.99
2022-10-13T01:17:53.542Z,24.18
2022-10-13T01:20:39.423Z,24.15
2022-10-13T01:23:27.175Z,23.72
2022-10-13T01:26:12.899Z,22.99
2022-10-13T01:28:58.879Z,22.90
2022-10-13T01:31:44.704Z,21.88
2022-10-13T01:34:30.677Z,21.62
2022-10-13T01:37:16.505Z,21.51
2022-10-13T01:40:02.457Z,25.40
2022-10-13T01:42:48.334Z,21.67
2022-10-13T01:45:34.186Z,20.48
2022-10-13T01:48:19.907Z,20.96
2022-10-13T01:51:05.899Z,20.86
2022-10-13T01:53:51.775Z,20.53
2022-10-13T01:56:37.721Z,19.45
2022-10-13T01:59:23.671Z,18.09
2022-10-13T02:02:11.472Z,17.67
2022-10-13T02:04:57.349Z,16.63
2022-10-13T02:07:43.247Z,16.10
2022-10-13T02:10:29.207Z,16.31
2022-10-13T02:13:15.066Z,15.55
2022-10-13T02:16:00.823Z,15.38
2022-10-13T02:18:46.814Z,15.24
2022-10-13T02:21:32.723Z,14.88
2022-10-13T02:24:18.621Z,14.60
2022-10-13T02:27:04.469Z,15.11
2022-10-13T02:29:50.237Z,14.70
2022-10-13T02:32:36.061Z,15.03
2022-10-13T02:35:22.123Z,14.53
2022-10-13T02:38:07.942Z,14.72
2022-10-13T02:40:54.092Z,14.46
2022-10-13T02:43:41.963Z,14.14
2022-10-13T02:46:27.767Z,14.38
2022-10-13T02:49:13.599Z,14.45
2022-10-13T02:51:59.509Z,15.17
2022-10-13T02:54:45.433Z,14.33
2022-10-13T02:57:31.239Z,13.99
2022-10-13T03:00:17.019Z,14.43
2022-10-13T03:03:02.842Z,14.34
2022-10-13T03:05:48.896Z,14.33
2022-10-13T03:08:34.791Z,14.56
2022-10-13T03:11:20.763Z,13.76
2022-10-13T03:14:06.653Z,13.83
2022-10-13T03:16:52.625Z,13.70
2022-10-13T03:19:38.553Z,13.35
2022-10-13T03:22:24.339Z,13.74
2022-10-13T03:25:10.383Z,13.25
2022-10-13T03:27:56.275Z,13.03
2022-10-13T03:30:42.103Z,13.12
2022-10-13T03:33:29.577Z,13.23
2022-10-13T03:36:15.322Z,13.17
2022-10-13T03:39:01.135Z,13.00
2022-10-13T03:41:47.122Z,13.23
2022-10-13T03:44:32.920Z,13.48
2022-10-13T03:47:18.787Z,13.35
2022-10-13T03:50:04.759Z,13.11
2022-10-13T03:52:50.492Z,13.76
2022-10-13T03:55:36.251Z,14.13
2022-10-13T03:58:22.057Z,14.21
2022-10-13T04:01:07.934Z,14.23
2022-10-13T04:03:53.796Z,13.88
2022-10-13T04:06:39.604Z,13.79
2022-10-13T04:09:25.417Z,13.50
2022-10-13T04:12:11.295Z,13.02
2022-10-13T04:14:57.177Z,13.55
2022-10-13T04:17:42.989Z,14.53
2022-10-13T04:20:28.707Z,15.05
2022-10-13T04:23:14.697Z,14.57
2022-10-13T04:26:00.503Z,15.21
2022-10-13T04:28:46.352Z,14.36
2022-10-13T04:31:32.168Z,14.31
2022-10-13T04:34:17.894Z,14.40
2022-10-13T04:37:03.810Z,14.85
2022-10-13T04:39:49.727Z,14.24
2022-10-13T04:42:35.530Z,14.65
2022-10-13T04:45:21.390Z,14.12
2022-10-13T04:48:07.187Z,13.79
2022-10-13T04:50:53.184Z,13.33
2022-10-13T04:53:39.053Z,13.23
2022-10-13T04:56:24.870Z,13.96
2022-10-13T04:59:10.854Z,13.52
2022-10-13T05:01:56.621Z,13.56
2022-10-13T05:04:42.529Z,13.37
2022-10-13T05:07:28.346Z,13.60
2022-10-13T05:10:14.149Z,13.18
2022-10-13T05:12:59.991Z,13.89
2022-10-13T05:15:45.757Z,13.70
2022-10-13T05:18:31.574Z,13.86
2022-10-13T05:21:17.588Z,13.52
2022-10-13T05:24:03.540Z,13.70
2022-10-13T05:26:49.376Z,13.14
2022-10-13T05:29:35.213Z,12.25
2022-10-13T05:32:21.263Z,11.49
2022-10-13T05:35:07.840Z,13.13
2022-10-13T05:37:53.940Z,12.84
2022-10-13T05:40:39.734Z,12.81
2022-10-13T05:43:25.538Z,11.47
2022-10-13T05:46:11.444Z,12.48
2022-10-13T05:48:57.164Z,13.35
2022-10-13T05:51:43.071Z,14.62
2022-10-13T05:54:28.821Z,14.26
2022-10-13T05:57:14.769Z,14.33
2022-10-13T06:00:02.751Z,13.72
2022-10-13T06:02:48.565Z,13.48
2022-10-13T06:05:34.517Z,13.33
2022-10-13T06:08:20.434Z,18.50
2022-10-13T06:11:06.498Z,17.32
2022-10-13T06:13:52.375Z,18.38
2022-10-13T06:16:38.226Z,17.33
2022-10-13T06:19:24.072Z,13.48
2022-10-13T06:22:10.132Z,12.89
2022-10-13T06:24:55.985Z,12.19
2022-10-13T06:27:41.793Z,11.96
2022-10-13T06:30:27.712Z,11.90
2022-10-13T06:33:13.463Z,12.03
2022-10-13T06:35:59.471Z,12.07
2022-10-13T06:38:45.286Z,11.47
2022-10-13T06:41:31.280Z,11.83
2022-10-13T06:44:17.092Z,11.70
2022-10-13T06:47:02.973Z,11.82
2022-10-13T06:49:48.906Z,12.12
2022-10-13T06:52:34.758Z,11.06
2022-10-13T06:55:20.577Z,11.35
2022-10-13T06:58:06.599Z,12.42
2022-10-13T07:00:52.391Z,12.79
2022-10-13T07:03:38.313Z,12.95
2022-10-13T07:06:24.309Z,13.28
2022-10-13T07:09:10.246Z,13.20
2022-10-13T07:11:56.176Z,14.63
2022-10-13T07:14:43.881Z,14.15
2022-10-13T07:17:29.869Z,13.94
2022-10-13T07:20:15.926Z,13.23
2022-10-13T07:23:01.666Z,13.42
2022-10-13T07:25:47.859Z,12.84
2022-10-13T07:28:34.200Z,13.10
2022-10-13T07:31:19.982Z,12.93
2022-10-13T07:34:05.787Z,11.70
2022-10-13T07:36:51.743Z,11.03
2022-10-13T07:39:37.620Z,10.85
2022-10-13T07:42:23.659Z,11.07
2022-10-13T07:45:09.393Z,10.74
2022-10-13T07:47:55.280Z,10.43
2022-10-13T07:50:41.109Z,10.87
2022-10-13T07:53:26.822Z,10.71
2022-10-13T07:56:12.570Z,10.93
2022-10-13T07:58:58.390Z,11.35
2022-10-13T08:01:44.284Z,11.50
2022-10-13T08:04:30.327Z,11.22
2022-10-13T08:07:16.185Z,11.84
2022-10-13T08:10:02.123Z,11.17
2022-10-13T08:12:48.033Z,11.19
2022-10-13T08:15:33.796Z,11.30
2022-10-13T08:18:19.721Z,11.09
2022-10-13T08:21:39.279Z,11.70
2022-10-13T08:24:11.759Z,10.98
2022-10-13T08:26:57.693Z,11.49
2022-10-13T08:29:43.611Z,10.81
2022-10-13T08:32:31.362Z,10.61
2022-10-13T08:35:17.391Z,11.41
2022-10-13T08:38:03.333Z,11.54
2022-10-13T08:40:49.205Z,11.61
2022-10-13T08:43:35.171Z,12.29
2022-10-13T08:46:21.015Z,12.13
2022-10-13T08:49:06.882Z,12.81
2022-10-13T08:51:52.912Z,12.82
2022-10-13T08:54:38.759Z,12.64
2022-10-13T08:57:24.700Z,12.55
2022-10-13T09:00:10.634Z,12.75
2022-10-13T09:02:56.553Z,13.01
2022-10-13T09:05:42.555Z,13.39
2022-10-13T09:08:28.420Z,14.08
2022-10-13T09:11:14.311Z,13.45
2022-10-13T09:14:00.331Z,12.91
2022-10-13T09:16:46.199Z,13.50
2022-10-13T09:19:32.257Z,13.95
2022-10-13T09:22:18.280Z,13.82
2022-10-13T09:25:04.372Z,13.33
2022-10-13T09:27:50.289Z,13.06
2022-10-13T09:30:36.123Z,13.80
2022-10-13T09:33:21.956Z,14.09
2022-10-13T09:36:07.823Z,14.74
2022-10-13T09:38:53.686Z,14.59
2022-10-13T09:41:39.540Z,15.12
2022-10-13T09:44:27.043Z,15.74
2022-10-13T09:47:13.624Z,16.17
2022-10-13T09:50:04.690Z,16.63
2022-10-13T09:52:53.512Z,15.58
2022-10-13T09:55:39.375Z,16.54
2022-10-13T09:58:27.278Z,16.02
2022-10-13T10:01:13.197Z,15.96
2022-10-13T10:04:01.349Z,15.47
2022-10-13T10:06:47.335Z,15.68
2022-10-13T10:09:33.201Z,15.60
2022-10-13T10:12:20.301Z,14.16
2022-10-13T10:15:07.909Z,13.56
2022-10-13T10:17:53.939Z,14.11
2022-10-13T10:20:39.885Z,13.53
2022-10-13T10:23:25.689Z,12.73
2022-10-13T10:26:11.633Z,12.78
2022-10-13T10:28:57.555Z,12.80
2022-10-13T10:31:43.526Z,12.53
2022-10-13T10:34:29.556Z,12.55
2022-10-13T10:37:15.521Z,12.67
2022-10-13T10:40:01.628Z,12.56
2022-10-13T10:42:51.963Z,12.34
2022-10-13T10:45:38.440Z,13.19
2022-10-13T10:48:24.371Z,12.48
2022-10-13T10:51:10.330Z,12.74
2022-10-13T10:53:56.205Z,12.48
2022-10-13T10:56:42.188Z,12.69
2022-10-13T10:59:28.116Z,12.83
2022-10-13T11:02:14.001Z,13.07
2022-10-13T11:05:05.403Z,13.35
2022-10-13T11:07:52.668Z,13.17
2022-10-13T11:10:38.494Z,13.93
2022-10-13T11:13:24.571Z,13.33
2022-10-13T11:16:10.374Z,13.20
2022-10-13T11:18:56.238Z,12.67
2022-10-13T11:21:42.264Z,13.48
2022-10-13T11:24:28.206Z,13.71
2022-10-13T11:27:14.036Z,13.46
2022-10-13T11:29:59.995Z,12.82
2022-10-13T11:32:45.864Z,13.44
2022-10-13T11:35:31.725Z,13.40
2022-10-13T11:38:18.060Z,13.56
2022-10-13T11:41:04.041Z,12.93
2022-10-13T11:43:49.922Z,12.34
2022-10-13T11:46:35.765Z,11.38
2022-10-13T11:49:21.524Z,11.08
2022-10-13T11:52:09.491Z,10.66
2022-10-13T11:54:55.463Z,10.33
2022-10-13T11:57:41.271Z,10.06
2022-10-13T12:00:27.246Z,10.62
2022-10-13T12:03:13.209Z,10.21
2022-10-13T12:05:59.046Z,10.84
2022-10-13T12:08:45.012Z,10.42
2022-10-13T12:11:30.711Z,10.98
2022-10-13T12:14:16.686Z,11.22
2022-10-13T12:17:02.449Z,11.73
2022-10-13T12:19:48.330Z,11.73
2022-10-13T12:22:39.329Z,11.20
2022-10-13T12:25:26.303Z,11.18
2022-10-13T12:28:12.063Z,10.96
2022-10-13T12:30:58.149Z,10.81
2022-10-13T12:33:44.370Z,10.94
2022-10-13T12:36:32.574Z,10.27
2022-10-13T12:39:18.500Z,9.54
2022-10-13T12:42:04.493Z,9.49
2022-10-13T12:44:50.189Z,9.22
2022-10-13T12:47:36.189Z,8.28
2022-10-13T12:50:22.123Z,8.84
2022-10-13T12:53:07.969Z,7.92
2022-10-13T12:55:55.932Z,7.85
2022-10-13T12:58:41.978Z,8.72
2022-10-13T13:01:27.900Z,10.42
2022-10-13T13:04:13.764Z,10.97
2022-10-13T13:06:59.567Z,9.71
2022-10-13T13:09:45.509Z,11.06
2022-10-13T13:12:31.399Z,12.25
2022-10-13T13:15:17.273Z,13.45
2022-10-13T13:18:05.271Z,12.56
2022-10-13T13:20:51.204Z,11.52
2022-10-13T13:23:37.099Z,11.95
2022-10-13T13:26:23.049Z,11.13
2022-10-13T13:29:08.849Z,11.08
2022-10-13T13:31:54.713Z,10.77
2022-10-13T13:34:40.722Z,9.69
2022-10-13T13:37:26.518Z,9.91
2022-10-13T13:40:12.513Z,9.91
2022-10-13T13:42:58.450Z,9.56
2022-10-13T13:45:44.414Z,9.48
2022-10-13T13:48:30.821Z,8.88
2022-10-13T13:51:16.610Z,9.13
2022-10-13T13:54:04.553Z,8.83
2022-10-13T13:56:50.436Z,9.27
2022-10-13T13:59:36.249Z,9.58
2022-10-13T14:02:22.204Z,9.04
2022-10-13T14:05:08.218Z,8.31
2022-10-13T14:07:54.074Z,8.40
2022-10-13T14:10:39.945Z,8.49
2022-10-13T14:13:25.877Z,8.65
2022-10-13T14:16:11.688Z,8.60
2022-10-13T14:18:57.576Z,8.58
2022-10-13T14:21:44.471Z,8.97
2022-10-13T14:24:30.351Z,8.71
2022-10-13T14:27:16.201Z,8.74
2022-10-13T14:30:02.228Z,9.94
2022-10-13T14:32:48.216Z,8.60
2022-10-13T14:35:34.064Z,8.75
2022-10-13T14:38:19.908Z,9.17
2022-10-13T14:41:05.775Z,10.05
2022-10-13T14:43:51.571Z,10.04
2022-10-13T14:46:37.521Z,10.35
2022-10-13T14:49:23.496Z,9.61
2022-10-13T14:52:09.394Z,9.42
2022-10-13T14:54:55.427Z,10.16
2022-10-13T14:57:41.277Z,10.05
2022-10-13T15:00:27.247Z,9.86
2022-10-13T15:03:13.380Z,10.91
2022-10-13T15:05:59.155Z,12.47
2022-10-13T15:08:45.031Z,12.50
2022-10-13T15:11:30.868Z,14.27
2022-10-13T15:14:16.824Z,12.86
2022-10-13T15:17:02.820Z,12.84
2022-10-13T15:19:48.592Z,12.56
2022-10-13T15:22:34.586Z,13.89
2022-10-13T15:25:20.473Z,14.21
2022-10-13T15:28:06.420Z,13.34
2022-10-13T15:30:52.319Z,13.37
2022-10-13T15:33:46.302Z,13.27
2022-10-13T15:36:32.224Z,12.64
2022-10-13T15:39:20.002Z,12.48
2022-10-13T15:42:05.925Z,12.69
2022-10-13T15:45:10.811Z,13.31
2022-10-13T15:47:57.305Z,13.35
2022-10-13T15:50:43.292Z,13.57
2022-10-13T15:53:29.256Z,13.85
2022-10-13T15:56:15.076Z,14.13
2022-10-13T15:59:01.113Z,13.68
2022-10-13T16:01:46.947Z,14.92
2022-10-13T16:04:37.258Z,14.60
2022-10-13T16:07:23.815Z,15.06
2022-10-13T16:10:09.760Z,16.53
2022-10-13T16:12:55.454Z,16.15
2022-10-13T16:15:41.205Z,15.99
2022-10-13T16:18:27.243Z,16.26
2022-10-13T16:21:18.075Z,15.69
2022-10-13T16:24:04.497Z,16.88
2022-10-13T16:26:50.469Z,16.14
2022-10-13T16:29:36.369Z,15.85
2022-10-13T16:32:22.726Z,16.91
2022-10-13T16:35:08.759Z,16.64
2022-10-13T16:37:54.668Z,16.26
2022-10-13T16:40:40.551Z,15.91
2022-10-13T16:43:26.376Z,16.28
2022-10-13T16:46:12.378Z,16.17
2022-10-13T16:48:58.259Z,16.30
2022-10-13T16:51:44.100Z,16.36
2022-10-13T16:54:30.086Z,16.63
2022-10-13T16:57:16.084Z,16.80
2022-10-13T17:00:02.081Z,17.10
2022-10-13T17:02:48.017Z,16.69
2022-10-13T17:05:33.872Z,17.34
2022-10-13T17:08:19.882Z,16.45
2022-10-13T17:11:05.930Z,16.61
2022-10-13T17:13:52.057Z,16.23
2022-10-13T17:16:38.172Z,16.77
2022-10-13T17:19:24.205Z,16.22
2022-10-13T17:22:10.068Z,16.28
2022-10-13T17:24:55.982Z,15.62
2022-10-13T17:27:41.899Z,15.32
2022-10-13T17:30:27.803Z,15.24
2022-10-13T17:33:13.648Z,15.41
2022-10-13T17:35:59.439Z,15.19
2022-10-13T17:38:45.599Z,15.50
2022-10-13T17:41:31.616Z,15.84
2022-10-13T17:44:17.502Z,15.15
2022-10-13T17:47:03.463Z,15.74
2022-10-13T17:49:49.226Z,15.66
2022-10-13T17:52:35.276Z,15.26
2022-10-13T17:55:21.223Z,14.47
2022-10-13T17:58:07.092Z,14.87
2022-10-13T18:01:12.327Z,15.54
2022-10-13T18:03:59.781Z,15.75
2022-10-13T18:06:46.358Z,15.44
2022-10-13T18:09:32.273Z,15.66
2022-10-13T18:12:18.201Z,15.89
2022-10-13T18:15:04.017Z,16.04
2022-10-13T18:17:50.039Z,14.89
2022-10-13T18:20:35.986Z,14.04
2022-10-13T18:23:21.757Z,12.45
2022-10-13T18:26:07.646Z,11.34
2022-10-13T18:28:53.519Z,10.21
2022-10-13T18:31:39.629Z,10.11
2022-10-13T18:34:25.565Z,9.60
2022-10-13T18:37:11.359Z,10.47
2022-10-13T18:39:57.249Z,11.23
2022-10-13T18:42:46.580Z,11.30
2022-10-13T18:45:33.456Z,12.72
2022-10-13T18:48:19.292Z,12.99
2022-10-13T18:51:05.308Z,13.67
2022-10-13T18:53:51.130Z,14.09
2022-10-13T18:56:37.201Z,13.79
2022-10-13T18:59:23.206Z,13.77
2022-10-13T19:02:09.000Z,13.23
2022-10-13T19:04:54.767Z,13.19
2022-10-13T19:07:40.582Z,13.33
2022-10-13T19:10:26.429Z,13.31
2022-10-13T19:13:12.377Z,13.24
2022-10-13T19:15:58.173Z,13.54
2022-10-13T19:18:44.134Z,14.37
2022-10-13T19:21:30.096Z,14.55
2022-10-13T19:24:15.919Z,13.66
2022-10-13T19:27:01.850Z,14.54
2022-10-13T19:29:47.780Z,14.42
2022-10-13T19:32:33.668Z,14.17
2022-10-13T19:35:19.633Z,14.33
2022-10-13T19:38:05.409Z,13.22
2022-10-13T19:40:51.598Z,12.68
2022-10-13T19:43:37.430Z,10.65
2022-10-13T19:46:23.185Z,10.95
2022-10-13T19:49:09.077Z,10.33
2022-10-13T19:51:54.889Z,10.21
2022-10-13T19:54:40.868Z,8.91
2022-10-13T19:57:26.739Z,7.90
2022-10-13T20:00:12.725Z,7.62
2022-10-13T20:02:58.648Z,7.39
2022-10-13T20:05:44.571Z,7.34
2022-10-13T20:08:30.434Z,7.33
2022-10-13T20:11:20.677Z,7.77
2022-10-13T20:14:09.171Z,7.29
2022-10-13T20:16:54.934Z,6.61
2022-10-13T20:19:40.798Z,6.66
2022-10-13T20:22:26.716Z,6.72
2022-10-13T20:25:12.466Z,6.49
2022-10-13T20:27:58.447Z,6.28
2022-10-13T20:30:44.338Z,6.18
2022-10-13T20:33:30.209Z,5.98
2022-10-13T20:36:16.193Z,5.90
2022-10-13T20:39:02.033Z,5.74
2022-10-13T20:41:48.046Z,5.59
2022-10-13T20:44:33.880Z,5.27
2022-10-13T20:47:20.015Z,5.01
2022-10-13T20:50:06.275Z,5.13
2022-10-13T20:52:52.170Z,5.04
2022-10-13T20:55:41.999Z,5.37
2022-10-13T20:58:29.983Z,5.50
2022-10-13T21:01:15.862Z,5.49
2022-10-13T21:04:01.849Z,5.64
2022-10-13T21:06:47.747Z,5.65
2022-10-13T21:09:33.597Z,5.67
2022-10-13T21:12:19.561Z,5.51
2022-10-13T21:15:05.487Z,5.60
2022-10-13T21:17:51.198Z,5.45
2022-10-13T21:20:37.173Z,5.33
2022-10-13T21:23:23.089Z,5.20
2022-10-13T21:26:08.883Z,5.22
2022-10-13T21:28:54.944Z,5.67
2022-10-13T21:31:40.738Z,5.77
2022-10-13T21:34:26.603Z,5.85
2022-10-13T21:37:12.555Z,6.10
2022-10-13T21:39:58.298Z,5.62
2022-10-13T21:42:44.248Z,5.59
2022-10-13T21:45:30.089Z,5.33
2022-10-13T21:48:15.850Z,5.32
2022-10-13T21:51:01.687Z,5.16
2022-10-13T21:53:47.519Z,4.99
2022-10-13T21:56:33.305Z,5.17
2022-10-13T21:59:19.191Z,4.95
2022-10-13T22:02:05.076Z,4.86
2022-10-13T22:04:53.075Z,4.60
2022-10-13T22:07:39.183Z,4.43
2022-10-13T22:10:24.958Z,4.10
2022-10-13T22:13:10.867Z,3.83
2022-10-13T22:15:56.625Z,4.00
2022-10-13T22:18:42.389Z,4.03
2022-10-13T22:21:28.331Z,4.05
2022-10-13T22:24:14.250Z,3.68
2022-10-13T22:27:00.027Z,3.77
2022-10-13T22:29:45.836Z,3.93
2022-10-13T22:32:31.740Z,3.82
2022-10-13T22:35:17.683Z,3.99
2022-10-13T22:38:03.477Z,3.92
2022-10-13T22:40:49.513Z,4.05
2022-10-13T22:43:35.252Z,4.65
2022-10-13T22:46:21.005Z,4.52
2022-10-13T22:49:06.922Z,4.63
2022-10-13T22:51:52.750Z,5.43
2022-10-13T22:54:38.557Z,6.19
2022-10-13T22:57:24.526Z,6.14
2022-10-13T23:00:10.207Z,7.14
2022-10-13T23:02:56.136Z,7.31
2022-10-13T23:05:41.910Z,8.00
2022-10-13T23:08:27.652Z,8.13
2022-10-13T23:11:13.569Z,8.81
2022-10-13T23:13:59.495Z,8.91
2022-10-13T23:16:45.439Z,9.37
2022-10-13T23:19:31.285Z,9.11
2022-10-13T23:22:17.095Z,9.33
2022-10-13T23:25:02.920Z,9.90
2022-10-13T23:27:48.765Z,9.44
2022-10-13T23:30:34.694Z,10.52
2022-10-13T23:33:20.539Z,9.53
2022-10-13T23:36:06.336Z,9.56
2022-10-13T23:38:52.274Z,10.05
2022-10-13T23:41:38.233Z,9.82
2022-10-13T23:44:24.047Z,9.60
2022-10-13T23:47:10.039Z,9.92
2022-10-13T23:49:56.281Z,10.16
2022-10-13T23:52:42.109Z,9.46
2022-10-13T23:55:28.019Z,9.37
2022-10-13T23:58:13.770Z,9.81
